Ocean Majesty — CQSC — position and weather

sailwx.info

Track history (hours):
 
Tides and Currents Weather Stations Pressure Air Temp Water Temp Dewpoint Dewpoint Depression Visibility Wind Speed Wind Dir Waves Ship Positions

Ocean Majesty

Last reported at 2017-Oct-20 02:22 UTC. Time now 2017-Oct-22 08:27 UTC.
Position N 38°11' E 024°07'.

Length 136 m; draft 6.4 m.

Type: Passenger vessel. MMSI: 255717000.

Date/timePositionNaut miles runAvg speedWind from/ knotsBaromVisibWave heightAir tempDewpointWater temp
2017-Oct-20 02:22N 38°11' E 024°07'613.6
2017-Oct-20 01:54N 38°05' E 024°08'613.8
2017-Oct-20 01:30N 37°59' E 024°09'2213.9
2017-Oct-19 23:56N 37°37' E 024°08'3114.5
2017-Oct-19 21:49N 37°11' E 023°49'514.6
2017-Oct-19 21:30N 37°07' E 023°46'815.5
2017-Oct-19 21:00N 37°00' E 023°41'25712.8
2017-Oct-19 00:55N 39°27' E 019°13'916.6
2017-Oct-19 00:21N 39°36' E 019°07'616.2
2017-Oct-19 00:00N 39°41' E 019°03'1116.5
2017-Oct-18 23:19N 39°50' E 018°56'516.6
2017-Oct-18 23:00N 39°55' E 018°53'815.6
2017-Oct-18 22:30N 40°00' E 018°46'916.7
2017-Oct-18 22:00N 40°08' E 018°40'816.1
2017-Oct-18 21:30N 40°15' E 018°35'816.5
2017-Oct-18 21:00N 40°21' E 018°28'816.8
2017-Oct-18 20:30N 40°28' E 018°22'816.5
2017-Oct-18 20:00N 40°35' E 018°15'816.6
2017-Oct-18 19:30N 40°41' E 018°09'917.0
2017-Oct-18 18:59N 40°48' E 018°02'21216.5
2017-Oct-18 06:09N 43°24' E 014°48'516.2
2017-Oct-18 05:51N 43°28' E 014°44'616.3
2017-Oct-18 05:29N 43°33' E 014°39'916.1
2017-Oct-18 04:56N 43°40' E 014°31'715.9
2017-Oct-18 04:28N 43°45' E 014°24'1015.5
2017-Oct-18 03:51N 43°53' E 014°16'515.5
2017-Oct-18 03:30N 43°57' E 014°12'815.7
2017-Oct-18 03:00N 44°03' E 014°05'815.8
2017-Oct-18 02:30N 44°10' E 013°59'815.9
2017-Oct-18 02:00N 44°16' E 013°52'815.9
2017-Oct-18 01:30N 44°23' E 013°46'816.0
2017-Oct-18 01:00N 44°30' E 013°40'816.0
2017-Oct-18 00:30N 44°37' E 013°34'816.2
2017-Oct-18 00:00N 44°43' E 013°28'816.5
2017-Oct-17 23:30N 44°50' E 013°20'816.2
2017-Oct-17 23:01N 44°56' E 013°14'816.1
2017-Oct-17 22:30N 45°02' E 013°07'815.8
2017-Oct-17 22:00N 45°09' E 012°59'816.1
2017-Oct-17 21:30N 45°14' E 012°51'815.9
2017-Oct-17 21:00N 45°18' E 012°41'815.8
2017-Oct-17 20:30N 45°22' E 012°32'612.1
2017-Oct-17 20:00N 45°26' E 012°25'3 5.6
2017-Oct-17 19:30N 45°26' E 012°21'2 3.0
2017-Oct-17 18:59N 45°26' E 012°19'0 0.0
2017-Oct-17 18:29N 45°26' E 012°19'0 0.0
2017-Oct-17 17:56N 45°26' E 012°19'0 0.0
2017-Oct-17 17:29N 45°26' E 012°19'0 0.0
2017-Oct-17 16:56N 45°26' E 012°19'0 0.0
2017-Oct-17 16:29N 45°26' E 012°19'0 0.0
2017-Oct-17 15:59N 45°26' E 012°19'0 0.0
2017-Oct-17 15:29N 45°26' E 012°19'0 0.0
2017-Oct-17 14:59N 45°26' E 012°19'0 0.0
2017-Oct-17 14:29N 45°26' E 012°19'0 0.0
2017-Oct-17 14:00N 45°26' E 012°19'1 1.7
2017-Oct-17 13:30N 45°26' E 012°20'2 4.5
2017-Oct-17 13:00N 45°26' E 012°23'4 8.0
2017-Oct-17 12:30N 45°24' E 012°28'1 2.1
2017-Oct-17 12:00N 45°25' E 012°30'0 0.0
2017-Oct-17 11:30N 45°25' E 012°30'0 0.0
2017-Oct-17 11:00N 45°25' E 012°30'0 0.0
2017-Oct-17 10:30N 45°25' E 012°30'0 0.0
2017-Oct-17 10:00N 45°25' E 012°30'0 0.0
2017-Oct-17 09:30N 45°25' E 012°30'0 0.0
2017-Oct-17 09:00N 45°25' E 012°30'0 0.0
2017-Oct-17 08:30N 45°25' E 012°30'0 0.0
2017-Oct-17 08:00N 45°25' E 012°30'0 0.0
2017-Oct-17 07:30N 45°25' E 012°30'0 0.0
2017-Oct-17 07:00N 45°25' E 012°30'0 0.0
2017-Oct-17 06:30N 45°25' E 012°30'3 6.2
2017-Oct-17 06:00N 45°22' E 012°33'612.0
2017-Oct-17 05:30N 45°18' E 012°38'612.1
2017-Oct-17 05:00N 45°14' E 012°45'612.3
2017-Oct-17 04:30N 45°10' E 012°51'714.4
2017-Oct-17 04:00N 45°06' E 013°00'715.0
2017-Oct-17 03:30N 45°03' E 013°10'815.1
2017-Oct-17 03:00N 44°58' E 013°18'815.3
2017-Oct-17 02:30N 44°53' E 013°26'815.3
2017-Oct-17 02:00N 44°47' E 013°32'815.4
2017-Oct-17 01:30N 44°40' E 013°38'815.4
2017-Oct-17 01:00N 44°33' E 013°43'815.7
2017-Oct-17 00:30N 44°27' E 013°50'815.7
2017-Oct-17 00:00N 44°21' E 013°56'815.7
2017-Oct-16 23:30N 44°14' E 014°02'815.6
2017-Oct-16 23:00N 44°08' E 014°08'815.5
2017-Oct-16 22:30N 44°04' E 014°18'815.3
2017-Oct-16 22:00N 44°00' E 014°27'815.4
2017-Oct-16 21:30N 43°56' E 014°36'815.6
2017-Oct-16 20:59N 43°52' E 014°46'120 5.7
2017-Oct-16 00:09N 42°38' E 016°55'212.1
2017-Oct-16 00:00N 42°37' E 016°57'3912.4
2017-Oct-15 20:54N 42°28' E 017°48'512.5
2017-Oct-15 20:30N 42°27' E 017°54'1612.2
2017-Oct-15 19:10N 42°24' E 018°16'212.1
2017-Oct-15 19:00N 42°23' E 018°18'812.0
2017-Oct-15 18:19N 42°21' E 018°29'  
2017-Oct-12 19:32N 40°04' E 018°38'010.5
2017-Oct-12 19:30N 40°04' E 018°37'510.3
2017-Oct-12 19:00N 39°59' E 018°35'3810.2
2017-Oct-12 15:18N 39°28' E 018°06'310.1
2017-Oct-12 15:00N 39°26' E 018°04'510.2
2017-Oct-12 14:30N 39°22' E 017°59'510.5
2017-Oct-12 14:00N 39°18' E 017°54'710.3
2017-Oct-12 13:18N 39°13' E 017°48'410.2
2017-Oct-12 12:55N 39°10' E 017°45'410.1
2017-Oct-12 12:30N 39°07' E 017°41'12110.8
2017-Oct-12 01:23N 37°41' E 015°53'611.6
2017-Oct-12 00:52N 37°42' E 015°45'611.9
2017-Oct-12 00:23N 37°46' E 015°40'512.0
2017-Oct-12 00:00N 37°50' E 015°37'612.3
2017-Oct-11 23:30N 37°56' E 015°34'612.5
2017-Oct-11 23:00N 38°02' E 015°34'612.0
2017-Oct-11 22:30N 38°08' E 015°35'815.3
2017-Oct-11 22:00N 38°15' E 015°38'713.6
2017-Oct-11 21:30N 38°22' E 015°36'917.2
2017-Oct-11 21:00N 38°28' E 015°29'817.2
2017-Oct-11 20:30N 38°35' E 015°22'917.0
2017-Oct-11 20:00N 38°41' E 015°15'8 5.6
2017-Oct-11 18:32N 38°49' E 015°13'3 7.9
2017-Oct-11 18:12N 38°48' E 015°16'211.7
2017-Oct-11 18:00N 38°46' E 015°15'611.9
2017-Oct-11 17:30N 38°41' E 015°12'611.8
2017-Oct-11 16:58N 38°35' E 015°08'126 5.5
2017-Oct-10 18:07N 40°33' E 014°10'111.7
2017-Oct-10 18:00N 40°34' E 014°10'612.0
2017-Oct-10 17:30N 40°38' E 014°16'5 9.7
2017-Oct-10 17:01N 40°39' E 014°22'1 1.1
2017-Oct-10 16:29N 40°38' E 014°23'0 0.0
2017-Oct-10 15:59N 40°38' E 014°23'0 0.0
2017-Oct-10 15:29N 40°38' E 014°23'0 0.1
2017-Oct-10 14:59N 40°38' E 014°23'0 0.0
2017-Oct-10 13:50N 40°38' E 014°23'0 0.0
2017-Oct-10 13:23N 40°38' E 014°23'0 0.1
2017-Oct-10 12:53N 40°38' E 014°23'0 0.1
2017-Oct-10 12:23N 40°38' E 014°23'0 0.0
2017-Oct-10 11:53N 40°38' E 014°23'0 0.0
2017-Oct-10 11:23N 40°38' E 014°23'0 0.0
2017-Oct-10 10:53N 40°38' E 014°23'0 0.0
2017-Oct-10 10:23N 40°38' E 014°23'0 0.1
2017-Oct-10 09:53N 40°38' E 014°23'0 0.0
2017-Oct-10 09:26N 40°38' E 014°23'0 0.0
2017-Oct-10 08:56N 40°38' E 014°23'0 0.0
2017-Oct-10 08:26N 40°38' E 014°23'0 0.1
2017-Oct-10 07:56N 40°38' E 014°23'0 0.1
2017-Oct-10 07:26N 40°38' E 014°23'0 0.0
2017-Oct-10 06:56N 40°38' E 014°23'0 0.0
2017-Oct-10 06:29N 40°38' E 014°23'0 0.0
2017-Oct-10 05:59N 40°38' E 014°23'  
Track history (hours):
 
Tides and Currents Weather Stations Pressure Air Temp Water Temp Dewpoint Dewpoint Depression Visibility Wind Speed Wind Dir Waves Ship Positions

Ocean Majesty

Last reported at 2017-Oct-20 02:22 UTC. Time now 2017-Oct-22 08:27 UTC.
Position N 38°11' E 024°07'.

Length 136 m; draft 6.4 m.

Type: Passenger vessel. MMSI: 255717000.

Date/timePositionNaut miles runAvg speedWind from/ knotsBaromVisibWave heightAir tempDewpointWater temp
2017-Oct-20 02:22N 38°11' E 024°07'613.6
2017-Oct-20 01:54N 38°05' E 024°08'613.8
2017-Oct-20 01:30N 37°59' E 024°09'2213.9
2017-Oct-19 23:56N 37°37' E 024°08'3114.5
2017-Oct-19 21:49N 37°11' E 023°49'514.6
2017-Oct-19 21:30N 37°07' E 023°46'815.5
2017-Oct-19 21:00N 37°00' E 023°41'25712.8
2017-Oct-19 00:55N 39°27' E 019°13'916.6
2017-Oct-19 00:21N 39°36' E 019°07'616.2
2017-Oct-19 00:00N 39°41' E 019°03'1116.5
2017-Oct-18 23:19N 39°50' E 018°56'516.6
2017-Oct-18 23:00N 39°55' E 018°53'815.6
2017-Oct-18 22:30N 40°00' E 018°46'916.7
2017-Oct-18 22:00N 40°08' E 018°40'816.1
2017-Oct-18 21:30N 40°15' E 018°35'816.5
2017-Oct-18 21:00N 40°21' E 018°28'816.8
2017-Oct-18 20:30N 40°28' E 018°22'816.5
2017-Oct-18 20:00N 40°35' E 018°15'816.6
2017-Oct-18 19:30N 40°41' E 018°09'917.0
2017-Oct-18 18:59N 40°48' E 018°02'21216.5
2017-Oct-18 06:09N 43°24' E 014°48'516.2
2017-Oct-18 05:51N 43°28' E 014°44'616.3
2017-Oct-18 05:29N 43°33' E 014°39'916.1
2017-Oct-18 04:56N 43°40' E 014°31'715.9
2017-Oct-18 04:28N 43°45' E 014°24'1015.5
2017-Oct-18 03:51N 43°53' E 014°16'515.5
2017-Oct-18 03:30N 43°57' E 014°12'815.7
2017-Oct-18 03:00N 44°03' E 014°05'815.8
2017-Oct-18 02:30N 44°10' E 013°59'815.9
2017-Oct-18 02:00N 44°16' E 013°52'815.9
2017-Oct-18 01:30N 44°23' E 013°46'816.0
2017-Oct-18 01:00N 44°30' E 013°40'816.0
2017-Oct-18 00:30N 44°37' E 013°34'816.2
2017-Oct-18 00:00N 44°43' E 013°28'816.5
2017-Oct-17 23:30N 44°50' E 013°20'816.2
2017-Oct-17 23:01N 44°56' E 013°14'816.1
2017-Oct-17 22:30N 45°02' E 013°07'815.8
2017-Oct-17 22:00N 45°09' E 012°59'816.1
2017-Oct-17 21:30N 45°14' E 012°51'815.9
2017-Oct-17 21:00N 45°18' E 012°41'815.8
2017-Oct-17 20:30N 45°22' E 012°32'612.1
2017-Oct-17 20:00N 45°26' E 012°25'3 5.6
2017-Oct-17 19:30N 45°26' E 012°21'2 3.0
2017-Oct-17 18:59N 45°26' E 012°19'0 0.0
2017-Oct-17 18:29N 45°26' E 012°19'0 0.0
2017-Oct-17 17:56N 45°26' E 012°19'0 0.0
2017-Oct-17 17:29N 45°26' E 012°19'0 0.0
2017-Oct-17 16:56N 45°26' E 012°19'0 0.0
2017-Oct-17 16:29N 45°26' E 012°19'0 0.0
2017-Oct-17 15:59N 45°26' E 012°19'0 0.0
2017-Oct-17 15:29N 45°26' E 012°19'0 0.0
2017-Oct-17 14:59N 45°26' E 012°19'0 0.0
2017-Oct-17 14:29N 45°26' E 012°19'0 0.0
2017-Oct-17 14:00N 45°26' E 012°19'1 1.7
2017-Oct-17 13:30N 45°26' E 012°20'2 4.5
2017-Oct-17 13:00N 45°26' E 012°23'4 8.0
2017-Oct-17 12:30N 45°24' E 012°28'1 2.1
2017-Oct-17 12:00N 45°25' E 012°30'0 0.0
2017-Oct-17 11:30N 45°25' E 012°30'0 0.0
2017-Oct-17 11:00N 45°25' E 012°30'0 0.0
2017-Oct-17 10:30N 45°25' E 012°30'0 0.0
2017-Oct-17 10:00N 45°25' E 012°30'0 0.0
2017-Oct-17 09:30N 45°25' E 012°30'0 0.0
2017-Oct-17 09:00N 45°25' E 012°30'0 0.0
2017-Oct-17 08:30N 45°25' E 012°30'0 0.0
2017-Oct-17 08:00N 45°25' E 012°30'0 0.0
2017-Oct-17 07:30N 45°25' E 012°30'0 0.0
2017-Oct-17 07:00N 45°25' E 012°30'0 0.0
2017-Oct-17 06:30N 45°25' E 012°30'3 6.2
2017-Oct-17 06:00N 45°22' E 012°33'612.0
2017-Oct-17 05:30N 45°18' E 012°38'612.1
2017-Oct-17 05:00N 45°14' E 012°45'612.3
2017-Oct-17 04:30N 45°10' E 012°51'714.4
2017-Oct-17 04:00N 45°06' E 013°00'715.0
2017-Oct-17 03:30N 45°03' E 013°10'815.1
2017-Oct-17 03:00N 44°58' E 013°18'815.3
2017-Oct-17 02:30N 44°53' E 013°26'815.3
2017-Oct-17 02:00N 44°47' E 013°32'815.4
2017-Oct-17 01:30N 44°40' E 013°38'815.4
2017-Oct-17 01:00N 44°33' E 013°43'815.7
2017-Oct-17 00:30N 44°27' E 013°50'815.7
2017-Oct-17 00:00N 44°21' E 013°56'815.7
2017-Oct-16 23:30N 44°14' E 014°02'815.6
2017-Oct-16 23:00N 44°08' E 014°08'815.5
2017-Oct-16 22:30N 44°04' E 014°18'815.3
2017-Oct-16 22:00N 44°00' E 014°27'815.4
2017-Oct-16 21:30N 43°56' E 014°36'815.6
2017-Oct-16 20:59N 43°52' E 014°46'120 5.7
2017-Oct-16 00:09N 42°38' E 016°55'212.1
2017-Oct-16 00:00N 42°37' E 016°57'3912.4
2017-Oct-15 20:54N 42°28' E 017°48'512.5
2017-Oct-15 20:30N 42°27' E 017°54'1612.2
2017-Oct-15 19:10N 42°24' E 018°16'212.1
2017-Oct-15 19:00N 42°23' E 018°18'812.0
2017-Oct-15 18:19N 42°21' E 018°29'  
2017-Oct-12 19:32N 40°04' E 018°38'010.5
2017-Oct-12 19:30N 40°04' E 018°37'510.3
2017-Oct-12 19:00N 39°59' E 018°35'3810.2
2017-Oct-12 15:18N 39°28' E 018°06'310.1
2017-Oct-12 15:00N 39°26' E 018°04'510.2
2017-Oct-12 14:30N 39°22' E 017°59'510.5
2017-Oct-12 14:00N 39°18' E 017°54'710.3
2017-Oct-12 13:18N 39°13' E 017°48'410.2
2017-Oct-12 12:55N 39°10' E 017°45'410.1
2017-Oct-12 12:30N 39°07' E 017°41'12110.8
2017-Oct-12 01:23N 37°41' E 015°53'611.6
2017-Oct-12 00:52N 37°42' E 015°45'611.9
2017-Oct-12 00:23N 37°46' E 015°40'512.0
2017-Oct-12 00:00N 37°50' E 015°37'612.3
2017-Oct-11 23:30N 37°56' E 015°34'612.5
2017-Oct-11 23:00N 38°02' E 015°34'612.0
2017-Oct-11 22:30N 38°08' E 015°35'815.3
2017-Oct-11 22:00N 38°15' E 015°38'713.6
2017-Oct-11 21:30N 38°22' E 015°36'917.2
2017-Oct-11 21:00N 38°28' E 015°29'817.2
2017-Oct-11 20:30N 38°35' E 015°22'917.0
2017-Oct-11 20:00N 38°41' E 015°15'8 5.6
2017-Oct-11 18:32N 38°49' E 015°13'3 7.9
2017-Oct-11 18:12N 38°48' E 015°16'211.7
2017-Oct-11 18:00N 38°46' E 015°15'611.9
2017-Oct-11 17:30N 38°41' E 015°12'611.8
2017-Oct-11 16:58N 38°35' E 015°08'126 5.5
2017-Oct-10 18:07N 40°33' E 014°10'111.7
2017-Oct-10 18:00N 40°34' E 014°10'612.0
2017-Oct-10 17:30N 40°38' E 014°16'5 9.7
2017-Oct-10 17:01N 40°39' E 014°22'1 1.1
2017-Oct-10 16:29N 40°38' E 014°23'0 0.0
2017-Oct-10 15:59N 40°38' E 014°23'0 0.0
2017-Oct-10 15:29N 40°38' E 014°23'0 0.1
2017-Oct-10 14:59N 40°38' E 014°23'0 0.0
2017-Oct-10 13:50N 40°38' E 014°23'0 0.0
2017-Oct-10 13:23N 40°38' E 014°23'0 0.1
2017-Oct-10 12:53N 40°38' E 014°23'0 0.1
2017-Oct-10 12:23N 40°38' E 014°23'0 0.0
2017-Oct-10 11:53N 40°38' E 014°23'0 0.0
2017-Oct-10 11:23N 40°38' E 014°23'0 0.0
2017-Oct-10 10:53N 40°38' E 014°23'0 0.0
2017-Oct-10 10:23N 40°38' E 014°23'0 0.1
2017-Oct-10 09:53N 40°38' E 014°23'0 0.0
2017-Oct-10 09:26N 40°38' E 014°23'0 0.0
2017-Oct-10 08:56N 40°38' E 014°23'0 0.0
2017-Oct-10 08:26N 40°38' E 014°23'0 0.1
2017-Oct-10 07:56N 40°38' E 014°23'0 0.1
2017-Oct-10 07:26N 40°38' E 014°23'0 0.0
2017-Oct-10 06:56N 40°38' E 014°23'0 0.0
2017-Oct-10 06:29N 40°38' E 014°23'0 0.0
2017-Oct-10 05:59N 40°38' E 014°23'  

Dump ship's entire track history